sensor_id;sensor_type;location;lat;lon;timestamp;pressure;altitude;pressure_sealevel;temperature;humidity
68859;BME280;55864;49.238;8.092;2024-01-16T00:00:38;98859.63;;;-0.28;83.38
68859;BME280;55864;49.238;8.092;2024-01-16T00:02:38;98866.09;;;-0.35;83.29
68859;BME280;55864;49.238;8.092;2024-01-16T00:04:39;98872.53;;;-0.42;83.66
68859;BME280;55864;49.238;8.092;2024-01-16T00:06:39;98860.75;;;-0.32;83.09
68859;BME280;55864;49.238;8.092;2024-01-16T00:08:40;98864.50;;;-0.37;83.47
68859;BME280;55864;49.238;8.092;2024-01-16T00:10:42;98881.16;;;-0.57;83.38
68859;BME280;55864;49.238;8.092;2024-01-16T00:12:42;98887.16;;;-0.42;83.84
68859;BME280;55864;49.238;8.092;2024-01-16T00:14:43;98883.16;;;-0.32;83.09
68859;BME280;55864;49.238;8.092;2024-01-16T00:16:44;98885.53;;;-0.29;82.70
68859;BME280;55864;49.238;8.092;2024-01-16T00:18:44;98880.56;;;-0.32;83.24
68859;BME280;55864;49.238;8.092;2024-01-16T00:20:45;98866.09;;;-0.35;83.08
68859;BME280;55864;49.238;8.092;2024-01-16T00:22:45;98873.94;;;-0.36;83.50
68859;BME280;55864;49.238;8.092;2024-01-16T00:24:46;98874.63;;;-0.48;83.41
68859;BME280;55864;49.238;8.092;2024-01-16T00:26:48;98871.34;;;-0.66;85.16
68859;BME280;55864;49.238;8.092;2024-01-16T00:28:48;98868.31;;;-0.58;85.01
68859;BME280;55864;49.238;8.092;2024-01-16T00:30:49;98855.91;;;-0.52;84.29
68859;BME280;55864;49.238;8.092;2024-01-16T00:32:50;98861.94;;;-0.37;83.79
68859;BME280;55864;49.238;8.092;2024-01-16T00:34:50;98860.38;;;-0.69;84.80
68859;BME280;55864;49.238;8.092;2024-01-16T00:36:51;98861.91;;;-0.51;84.83
68859;BME280;55864;49.238;8.092;2024-01-16T00:38:51;98857.50;;;-0.49;83.85
68859;BME280;55864;49.238;8.092;2024-01-16T00:40:52;98860.44;;;-0.41;83.88
68859;BME280;55864;49.238;8.092;2024-01-16T00:42:53;98862.81;;;-0.52;84.06
68859;BME280;55864;49.238;8.092;2024-01-16T00:44:54;98870.41;;;-0.49;84.29
68859;BME280;55864;49.238;8.092;2024-01-16T00:46:54;98864.94;;;-0.45;83.74
68859;BME280;55864;49.238;8.092;2024-01-16T00:48:55;98864.50;;;-0.51;84.15
68859;BME280;55864;49.238;8.092;2024-01-16T00:50:56;98865.19;;;-0.63;85.35
68859;BME280;55864;49.238;8.092;2024-01-16T00:52:56;98868.00;;;-0.68;85.23
68859;BME280;55864;49.238;8.092;2024-01-16T00:54:57;98873.44;;;-0.72;85.14
68859;BME280;55864;49.238;8.092;2024-01-16T00:56:57;98872.94;;;-0.79;85.28
68859;BME280;55864;49.238;8.092;2024-01-16T00:58:59;98876.81;;;-0.56;84.79
68859;BME280;55864;49.238;8.092;2024-01-16T01:01:00;98871.81;;;-0.59;84.82
68859;BME280;55864;49.238;8.092;2024-01-16T01:03:00;98871.97;;;-0.62;84.85
68859;BME280;55864;49.238;8.092;2024-01-16T01:05:01;98876.16;;;-0.60;84.64
68859;BME280;55864;49.238;8.092;2024-01-16T01:07:02;98879.91;;;-0.65;85.10
68859;BME280;55864;49.238;8.092;2024-01-16T01:09:02;98879.47;;;-0.58;84.54
68859;BME280;55864;49.238;8.092;2024-01-16T01:11:03;98887.31;;;-0.59;84.58
68859;BME280;55864;49.238;8.092;2024-01-16T01:13:04;98876.81;;;-0.56;84.60
68859;BME280;55864;49.238;8.092;2024-01-16T01:15:06;98882.69;;;-0.54;84.21
68859;BME280;55864;49.238;8.092;2024-01-16T01:17:07;98882.81;;;-0.71;85.26
68859;BME280;55864;49.238;8.092;2024-01-16T01:19:08;98892.28;;;-0.56;84.32
68859;BME280;55864;49.238;8.092;2024-01-16T01:21:08;98888.88;;;-0.57;84.51
68859;BME280;55864;49.238;8.092;2024-01-16T01:23:09;98891.84;;;-0.49;83.73
68859;BME280;55864;49.238;8.092;2024-01-16T01:25:10;98900.22;;;-0.45;84.13
68859;BME280;55864;49.238;8.092;2024-01-16T01:27:11;98904.19;;;-0.40;84.01
68859;BME280;55864;49.238;8.092;2024-01-16T01:29:12;98904.59;;;-0.61;83.76
68859;BME280;55864;49.238;8.092;2024-01-16T01:31:14;98905.91;;;-0.54;84.33
68859;BME280;55864;49.238;8.092;2024-01-16T01:33:14;98909.41;;;-0.55;84.33
68859;BME280;55864;49.238;8.092;2024-01-16T01:35:17;98898.78;;;-0.65;84.75
68859;BME280;55864;49.238;8.092;2024-01-16T01:37:17;98899.63;;;-0.64;84.99
68859;BME280;55864;49.238;8.092;2024-01-16T01:39:18;98904.59;;;-0.61;85.02
68859;BME280;55864;49.238;8.092;2024-01-16T01:41:18;98912.16;;;-0.58;84.73
68859;BME280;55864;49.238;8.092;2024-01-16T01:43:20;98911.06;;;-0.54;83.97
68859;BME280;55864;49.238;8.092;2024-01-16T01:45:21;98912.75;;;-0.53;84.33
68859;BME280;55864;49.238;8.092;2024-01-16T01:47:23;98923.22;;;-0.56;84.68
68859;BME280;55864;49.238;8.092;2024-01-16T01:49:25;98921.13;;;-0.50;84.04
68859;BME280;55864;49.238;8.092;2024-01-16T01:51:25;98933.94;;;-0.48;83.36
68859;BME280;55864;49.238;8.092;2024-01-16T01:53:26;98921.38;;;-0.54;84.05
68859;BME280;55864;49.238;8.092;2024-01-16T01:55:27;98921.06;;;-0.64;84.01
68859;BME280;55864;49.238;8.092;2024-01-16T01:57:28;98923.25;;;-0.72;84.44
68859;BME280;55864;49.238;8.092;2024-01-16T01:59:29;98917.09;;;-0.69;85.06
68859;BME280;55864;49.238;8.092;2024-01-16T02:01:33;98931.16;;;-0.75;85.12
68859;BME280;55864;49.238;8.092;2024-01-16T02:03:40;98923.88;;;-0.53;84.40
68859;BME280;55864;49.238;8.092;2024-01-16T02:05:42;98920.84;;;-0.75;84.61
68859;BME280;55864;49.238;8.092;2024-01-16T02:07:42;98916.25;;;-0.70;84.97
68859;BME280;55864;49.238;8.092;2024-01-16T02:09:43;98912.28;;;-0.75;84.98
68859;BME280;55864;49.238;8.092;2024-01-16T02:11:44;98920.50;;;-0.69;84.84
68859;BME280;55864;49.238;8.092;2024-01-16T02:13:45;98910.31;;;-0.56;84.42
68859;BME280;55864;49.238;8.092;2024-01-16T02:15:45;98916.19;;;-0.68;84.25
68859;BME280;55864;49.238;8.092;2024-01-16T02:17:47;98901.03;;;-0.59;84.22
68859;BME280;55864;49.238;8.092;2024-01-16T02:19:49;98922.25;;;-0.85;85.51
68859;BME280;55864;49.238;8.092;2024-01-16T02:21:51;98905.69;;;-0.65;85.27
68859;BME280;55864;49.238;8.092;2024-01-16T02:23:54;98897.31;;;-0.69;85.22
68859;BME280;55864;49.238;8.092;2024-01-16T02:25:55;98899.63;;;-0.64;84.63
68859;BME280;55864;49.238;8.092;2024-01-16T02:27:55;98899.09;;;-0.55;84.92
68859;BME280;55864;49.238;8.092;2024-01-16T02:29:56;98896.66;;;-0.72;85.11
68859;BME280;55864;49.238;8.092;2024-01-16T02:31:56;98896.38;;;-0.68;85.38
68859;BME280;55864;49.238;8.092;2024-01-16T02:33:57;98893.72;;;-0.66;85.28
68859;BME280;55864;49.238;8.092;2024-01-16T02:35:57;98893.00;;;-0.54;84.71
68859;BME280;55864;49.238;8.092;2024-01-16T02:37:58;98898.69;;;-0.63;85.35
68859;BME280;55864;49.238;8.092;2024-01-16T02:40:00;98901.47;;;-0.66;85.72
68859;BME280;55864;49.238;8.092;2024-01-16T02:42:00;98889.56;;;-0.69;85.12
68859;BME280;55864;49.238;8.092;2024-01-16T02:44:01;98894.84;;;-0.56;84.71
68859;BME280;55864;49.238;8.092;2024-01-16T02:46:01;98890.31;;;-0.67;84.82
68859;BME280;55864;49.238;8.092;2024-01-16T02:48:02;98880.97;;;-0.54;84.76
68859;BME280;55864;49.238;8.092;2024-01-16T02:50:03;98896.22;;;-0.65;84.93
68859;BME280;55864;49.238;8.092;2024-01-16T02:52:04;98894.88;;;-0.72;85.23
68859;BME280;55864;49.238;8.092;2024-01-16T02:54:06;98901.41;;;-0.51;84.77
68859;BME280;55864;49.238;8.092;2024-01-16T02:56:09;98894.63;;;-0.67;84.32
68859;BME280;55864;49.238;8.092;2024-01-16T02:58:09;98894.28;;;-0.61;84.36
68859;BME280;55864;49.238;8.092;2024-01-16T03:00:10;98887.94;;;-0.85;85.48
68859;BME280;55864;49.238;8.092;2024-01-16T03:02:11;98894.84;;;-0.56;84.39
68859;BME280;55864;49.238;8.092;2024-01-16T03:04:11;98901.63;;;-0.69;84.15
68859;BME280;55864;49.238;8.092;2024-01-16T03:06:21;98896.13;;;-0.63;83.78
68859;BME280;55864;49.238;8.092;2024-01-16T03:08:22;98899.38;;;-0.75;83.95
68859;BME280;55864;49.238;8.092;2024-01-16T03:10:22;98895.78;;;-0.57;83.96
68859;BME280;55864;49.238;8.092;2024-01-16T03:12:24;98903.69;;;-0.60;83.25
68859;BME280;55864;49.238;8.092;2024-01-16T03:14:24;98907.06;;;-0.44;83.02
68859;BME280;55864;49.238;8.092;2024-01-16T03:16:25;98910.03;;;-0.36;82.26
68859;BME280;55864;49.238;8.092;2024-01-16T03:18:25;98902.06;;;-0.47;82.29
68859;BME280;55864;49.238;8.092;2024-01-16T03:20:26;98905.78;;;-0.37;82.60
68859;BME280;55864;49.238;8.092;2024-01-16T03:22:27;98890.63;;;-0.57;83.20
68859;BME280;55864;49.238;8.092;2024-01-16T03:24:27;98896.88;;;-0.61;82.68
68859;BME280;55864;49.238;8.092;2024-01-16T03:26:27;98895.81;;;-0.43;83.00
68859;BME280;55864;49.238;8.092;2024-01-16T03:28:29;98899.41;;;-0.46;82.73
68859;BME280;55864;49.238;8.092;2024-01-16T03:30:30;98899.69;;;-0.66;83.22
68859;BME280;55864;49.238;8.092;2024-01-16T03:32:30;98895.59;;;-0.54;82.42
68859;BME280;55864;49.238;8.092;2024-01-16T03:34:31;98899.09;;;-0.55;81.96
68859;BME280;55864;49.238;8.092;2024-01-16T03:36:31;98900.63;;;-0.67;82.35
68859;BME280;55864;49.238;8.092;2024-01-16T03:38:32;98904.41;;;-1.04;82.52
68859;BME280;55864;49.238;8.092;2024-01-16T03:40:32;98917.88;;;-1.14;84.66
68859;BME280;55864;49.238;8.092;2024-01-16T03:42:33;98927.88;;;-1.08;82.90
68859;BME280;55864;49.238;8.092;2024-01-16T03:44:38;98935.34;;;-2.17;87.31
68859;BME280;55864;49.238;8.092;2024-01-16T03:46:38;98925.13;;;-1.69;87.78
68859;BME280;55864;49.238;8.092;2024-01-16T03:48:39;98921.50;;;-2.15;89.23
68859;BME280;55864;49.238;8.092;2024-01-16T03:50:39;98927.31;;;-2.45;90.71
68859;BME280;55864;49.238;8.092;2024-01-16T03:52:40;98931.75;;;-2.66;92.61
68859;BME280;55864;49.238;8.092;2024-01-16T03:54:40;98921.59;;;-2.33;92.94
68859;BME280;55864;49.238;8.092;2024-01-16T03:56:41;98922.78;;;-2.57;92.14
68859;BME280;55864;49.238;8.092;2024-01-16T03:58:42;98929.28;;;-2.67;93.40
68859;BME280;55864;49.238;8.092;2024-01-16T04:00:44;98923.00;;;-2.62;94.06
68859;BME280;55864;49.238;8.092;2024-01-16T04:02:44;98926.84;;;-2.53;94.11
68859;BME280;55864;49.238;8.092;2024-01-16T04:04:45;98943.16;;;-2.71;94.51
68859;BME280;55864;49.238;8.092;2024-01-16T04:06:45;98941.19;;;-2.66;94.91
68859;BME280;55864;49.238;8.092;2024-01-16T04:08:46;98930.25;;;-2.53;94.54
68859;BME280;55864;49.238;8.092;2024-01-16T04:10:46;98944.69;;;-2.67;94.36
68859;BME280;55864;49.238;8.092;2024-01-16T04:12:47;98952.72;;;-2.92;94.60
68859;BME280;55864;49.238;8.092;2024-01-16T04:14:47;98945.22;;;-2.97;95.57
68859;BME280;55864;49.238;8.092;2024-01-16T04:16:49;98939.94;;;-2.94;95.78
68859;BME280;55864;49.238;8.092;2024-01-16T04:18:50;98949.13;;;-3.07;95.55
68859;BME280;55864;49.238;8.092;2024-01-16T04:20:50;98952.75;;;-3.11;96.54
68859;BME280;55864;49.238;8.092;2024-01-16T04:22:51;98955.06;;;-2.88;96.78
68859;BME280;55864;49.238;8.092;2024-01-16T04:24:52;98940.56;;;-2.89;96.35
68859;BME280;55864;49.238;8.092;2024-01-16T04:26:52;98946.19;;;-2.80;96.47
68859;BME280;55864;49.238;8.092;2024-01-16T04:28:53;98940.28;;;-2.82;96.28
68859;BME280;55864;49.238;8.092;2024-01-16T04:30:53;98935.50;;;-2.90;96.43
68859;BME280;55864;49.238;8.092;2024-01-16T04:32:55;98945.69;;;-2.89;96.14
68859;BME280;55864;49.238;8.092;2024-01-16T04:34:56;98945.97;;;-2.95;96.43
68859;BME280;55864;49.238;8.092;2024-01-16T04:36:56;98945.78;;;-2.90;96.52
68859;BME280;55864;49.238;8.092;2024-01-16T04:38:57;98940.72;;;-2.92;96.62
68859;BME280;55864;49.238;8.092;2024-01-16T04:41:01;98944.59;;;-3.02;97.17
68859;BME280;55864;49.238;8.092;2024-01-16T04:43:01;98938.03;;;-3.07;96.75
68859;BME280;55864;49.238;8.092;2024-01-16T04:45:02;98938.91;;;-3.08;97.73
68859;BME280;55864;49.238;8.092;2024-01-16T04:47:03;98949.34;;;-3.11;98.08
68859;BME280;55864;49.238;8.092;2024-01-16T04:49:05;98943.50;;;-3.15;98.06
68859;BME280;55864;49.238;8.092;2024-01-16T04:51:05;98950.38;;;-3.15;98.11
68859;BME280;55864;49.238;8.092;2024-01-16T04:53:06;98938.72;;;-3.22;98.31
68859;BME280;55864;49.238;8.092;2024-01-16T04:55:07;98943.78;;;-3.21;97.96
68859;BME280;55864;49.238;8.092;2024-01-16T04:57:08;98934.91;;;-3.32;98.29
68859;BME280;55864;49.238;8.092;2024-01-16T04:59:08;98935.16;;;-3.38;98.15
68859;BME280;55864;49.238;8.092;2024-01-16T05:01:09;98938.09;;;-3.46;98.39
68859;BME280;55864;49.238;8.092;2024-01-16T05:03:09;98942.09;;;-3.40;98.12
68859;BME280;55864;49.238;8.092;2024-01-16T05:05:11;98935.09;;;-3.55;98.79
68859;BME280;55864;49.238;8.092;2024-01-16T05:07:12;98934.28;;;-3.56;98.66
68859;BME280;55864;49.238;8.092;2024-01-16T05:09:12;98928.56;;;-3.62;99.00
68859;BME280;55864;49.238;8.092;2024-01-16T05:11:13;98919.94;;;-3.80;99.29
68859;BME280;55864;49.238;8.092;2024-01-16T05:13:13;98919.19;;;-3.82;99.88
68859;BME280;55864;49.238;8.092;2024-01-16T05:15:14;98913.44;;;-3.68;99.82
68859;BME280;55864;49.238;8.092;2024-01-16T05:17:14;98920.63;;;-3.76;99.94
68859;BME280;55864;49.238;8.092;2024-01-16T05:19:15;98931.53;;;-3.90;100.00
68859;BME280;55864;49.238;8.092;2024-01-16T05:21:17;98921.28;;;-3.90;100.00
68859;BME280;55864;49.238;8.092;2024-01-16T05:23:17;98924.16;;;-3.98;100.00
68859;BME280;55864;49.238;8.092;2024-01-16T05:25:18;98914.00;;;-3.80;100.00
68859;BME280;55864;49.238;8.092;2024-01-16T05:27:18;98902.91;;;-3.81;100.00
68859;BME280;55864;49.238;8.092;2024-01-16T05:29:19;98896.94;;;-3.82;100.00
68859;BME280;55864;49.238;8.092;2024-01-16T05:31:19;98893.84;;;-3.69;100.00
68859;BME280;55864;49.238;8.092;2024-01-16T05:33:20;98896.94;;;-3.63;100.00
68859;BME280;55864;49.238;8.092;2024-01-16T05:35:21;98890.50;;;-3.71;100.00
68859;BME280;55864;49.238;8.092;2024-01-16T05:37:22;98890.34;;;-3.68;100.00
68859;BME280;55864;49.238;8.092;2024-01-16T05:39:23;98890.34;;;-3.68;100.00
68859;BME280;55864;49.238;8.092;2024-01-16T05:41:23;98888.47;;;-3.65;100.00
68859;BME280;55864;49.238;8.092;2024-01-16T05:43:24;98886.25;;;-3.72;100.00
68859;BME280;55864;49.238;8.092;2024-01-16T05:45:24;98884.69;;;-3.75;100.00
68859;BME280;55864;49.238;8.092;2024-01-16T05:47:25;98891.69;;;-3.78;100.00
68859;BME280;55864;49.238;8.092;2024-01-16T05:49:29;98884.72;;;-3.76;100.00
68859;BME280;55864;49.238;8.092;2024-01-16T05:51:30;98885.91;;;-3.65;100.00
68859;BME280;55864;49.238;8.092;2024-01-16T05:53:32;98889.41;;;-3.66;100.00
68859;BME280;55864;49.238;8.092;2024-01-16T05:55:32;98895.75;;;-3.74;100.00
68859;BME280;55864;49.238;8.092;2024-01-16T05:57:33;98889.41;;;-3.66;100.00
68859;BME280;55864;49.238;8.092;2024-01-16T05:59:33;98889.13;;;-3.78;100.00
68859;BME280;55864;49.238;8.092;2024-01-16T06:01:34;98891.63;;;-3.77;100.00
68859;BME280;55864;49.238;8.092;2024-01-16T06:03:34;98889.13;;;-3.60;100.00
68859;BME280;55864;49.238;8.092;2024-01-16T06:05:35;98890.34;;;-3.68;100.00
68859;BME280;55864;49.238;8.092;2024-01-16T06:07:35;98885.88;;;-3.63;100.00
68859;BME280;55864;49.238;8.092;2024-01-16T06:09:39;98882.13;;;-3.56;100.00
68859;BME280;55864;49.238;8.092;2024-01-16T06:11:40;98891.34;;;-3.71;100.00
68859;BME280;55864;49.238;8.092;2024-01-16T06:13:41;98878.72;;;-3.57;100.00
68859;BME280;55864;49.238;8.092;2024-01-16T06:15:41;98889.94;;;-3.59;100.00
68859;BME280;55864;49.238;8.092;2024-01-16T06:17:41;98894.28;;;-3.80;100.00
68859;BME280;55864;49.238;8.092;2024-01-16T06:19:42;98887.19;;;-3.73;100.00
68859;BME280;55864;49.238;8.092;2024-01-16T06:21:43;98890.19;;;-3.84;100.00
68859;BME280;55864;49.238;8.092;2024-01-16T06:23:43;98889.25;;;-3.82;100.00
68859;BME280;55864;49.238;8.092;2024-01-16T06:25:45;98891.28;;;-3.69;100.00
68859;BME280;55864;49.238;8.092;2024-01-16T06:27:46;98891.88;;;-3.64;100.00
68859;BME280;55864;49.238;8.092;2024-01-16T06:29:46;98890.44;;;-3.51;100.00
68859;BME280;55864;49.238;8.092;2024-01-16T06:31:47;98895.22;;;-3.44;100.00
68859;BME280;55864;49.238;8.092;2024-01-16T06:33:47;98885.63;;;-3.40;100.00
68859;BME280;55864;49.238;8.092;2024-01-16T06:35:48;98890.78;;;-3.40;100.00
68859;BME280;55864;49.238;8.092;2024-01-16T06:37:48;98891.19;;;-3.31;100.00
68859;BME280;55864;49.238;8.092;2024-01-16T06:39:49;98883.47;;;-3.31;100.00
68859;BME280;55864;49.238;8.092;2024-01-16T06:41:51;98887.47;;;-3.24;100.00
68859;BME280;55864;49.238;8.092;2024-01-16T06:43:51;98890.63;;;-3.19;100.00
68859;BME280;55864;49.238;8.092;2024-01-16T06:45:52;98893.13;;;-3.17;100.00
68859;BME280;55864;49.238;8.092;2024-01-16T06:47:52;98886.03;;;-3.12;100.00
68859;BME280;55864;49.238;8.092;2024-01-16T06:49:53;98882.44;;;-3.27;100.00
68859;BME280;55864;49.238;8.092;2024-01-16T06:51:53;98878.06;;;-3.25;99.89
68859;BME280;55864;49.238;8.092;2024-01-16T06:53:54;98872.44;;;-3.33;100.00
68859;BME280;55864;49.238;8.092;2024-01-16T06:55:54;98881.59;;;-3.27;100.00
68859;BME280;55864;49.238;8.092;2024-01-16T06:57:56;98872.06;;;-3.24;100.00
68859;BME280;55864;49.238;8.092;2024-01-16T06:59:57;98868.84;;;-3.29;100.00
68859;BME280;55864;49.238;8.092;2024-01-16T07:01:57;98878.22;;;-3.28;100.00
68859;BME280;55864;49.238;8.092;2024-01-16T07:03:58;98877.59;;;-3.33;100.00
68859;BME280;55864;49.238;8.092;2024-01-16T07:05:58;98879.78;;;-3.25;100.00
68859;BME280;55864;49.238;8.092;2024-01-16T07:07:59;98882.16;;;-3.21;100.00
68859;BME280;55864;49.238;8.092;2024-01-16T07:09:59;98881.59;;;-3.09;100.00
68859;BME280;55864;49.238;8.092;2024-01-16T07:12:00;98885.13;;;-3.11;99.93
68859;BME280;55864;49.238;8.092;2024-01-16T07:14:02;98885.28;;;-3.14;99.78
68859;BME280;55864;49.238;8.092;2024-01-16T07:16:02;98878.03;;;-3.06;99.68
68859;BME280;55864;49.238;8.092;2024-01-16T07:18:03;98882.41;;;-3.08;99.23
68859;BME280;55864;49.238;8.092;2024-01-16T07:20:04;98881.72;;;-3.12;99.14
68859;BME280;55864;49.238;8.092;2024-01-16T07:22:05;98872.19;;;-2.74;97.66
68859;BME280;55864;49.238;8.092;2024-01-16T07:24:06;98875.69;;;-2.75;97.15
68859;BME280;55864;49.238;8.092;2024-01-16T07:26:06;98872.72;;;-2.84;97.23
68859;BME280;55864;49.238;8.092;2024-01-16T07:28:07;98883.44;;;-2.94;97.96
68859;BME280;55864;49.238;8.092;2024-01-16T07:30:10;98886.13;;;-2.97;97.57
68859;BME280;55864;49.238;8.092;2024-01-16T07:32:10;98884.28;;;-2.76;97.92
68859;BME280;55864;49.238;8.092;2024-01-16T07:34:11;98878.94;;;-2.54;96.41
68859;BME280;55864;49.238;8.092;2024-01-16T07:36:12;98880.91;;;-2.25;93.49
68859;BME280;55864;49.238;8.092;2024-01-16T07:38:12;98874.47;;;-2.51;94.28
68859;BME280;55864;49.238;8.092;2024-01-16T07:40:13;98874.16;;;-2.28;93.62
68859;BME280;55864;49.238;8.092;2024-01-16T07:42:13;98869.53;;;-2.21;93.30
68859;BME280;55864;49.238;8.092;2024-01-16T07:44:14;98872.84;;;-1.86;91.50
68859;BME280;55864;49.238;8.092;2024-01-16T07:46:16;98873.53;;;-1.83;90.66
68859;BME280;55864;49.238;8.092;2024-01-16T07:48:16;98875.06;;;-2.46;92.38
68859;BME280;55864;49.238;8.092;2024-01-16T07:50:17;98871.97;;;-2.52;93.95
68859;BME280;55864;49.238;8.092;2024-01-16T07:52:17;98878.00;;;-2.70;95.13
68859;BME280;55864;49.238;8.092;2024-01-16T07:54:18;98884.34;;;-2.95;95.01
68859;BME280;55864;49.238;8.092;2024-01-16T07:56:18;98883.75;;;-2.82;95.74
68859;BME280;55864;49.238;8.092;2024-01-16T07:58:19;98891.97;;;-2.76;95.63
68859;BME280;55864;49.238;8.092;2024-01-16T08:00:20;98889.28;;;-2.56;95.17
68859;BME280;55864;49.238;8.092;2024-01-16T08:02:22;98899.50;;;-2.37;94.04
68859;BME280;55864;49.238;8.092;2024-01-16T08:04:22;98893.59;;;-2.73;94.60
68859;BME280;55864;49.238;8.092;2024-01-16T08:06:23;98892.34;;;-2.83;95.29
68859;BME280;55864;49.238;8.092;2024-01-16T08:08:23;98906.03;;;-2.83;96.15
68859;BME280;55864;49.238;8.092;2024-01-16T08:10:24;98899.66;;;-2.74;96.50
68859;BME280;55864;49.238;8.092;2024-01-16T08:12:24;98899.78;;;-2.77;96.04
68859;BME280;55864;49.238;8.092;2024-01-16T08:14:25;98896.53;;;-2.30;94.24
68859;BME280;55864;49.238;8.092;2024-01-16T08:16:25;98895.06;;;-2.01;91.51
68859;BME280;55864;49.238;8.092;2024-01-16T08:18:27;98884.25;;;-2.08;92.03
68859;BME280;55864;49.238;8.092;2024-01-16T08:20:28;98895.22;;;-2.04;90.75
68859;BME280;55864;49.238;8.092;2024-01-16T08:22:29;98893.63;;;-1.89;90.85
68859;BME280;55864;49.238;8.092;2024-01-16T08:24:29;98889.72;;;-1.81;91.11
68859;BME280;55864;49.238;8.092;2024-01-16T08:26:30;98892.69;;;-1.56;89.74
68859;BME280;55864;49.238;8.092;2024-01-16T08:28:30;98898.00;;;-1.43;88.45
68859;BME280;55864;49.238;8.092;2024-01-16T08:30:31;98895.69;;;-1.48;88.93
68859;BME280;55864;49.238;8.092;2024-01-16T08:32:31;98892.59;;;-1.87;89.84
68859;BME280;55864;49.238;8.092;2024-01-16T08:34:33;98896.19;;;-1.89;89.46
68859;BME280;55864;49.238;8.092;2024-01-16T08:36:34;98899.03;;;-2.11;91.59
68859;BME280;55864;49.238;8.092;2024-01-16T08:38:34;98894.53;;;-2.08;91.21
68859;BME280;55864;49.238;8.092;2024-01-16T08:40:35;98906.28;;;-2.19;92.19
68859;BME280;55864;49.238;8.092;2024-01-16T08:42:35;98911.28;;;-1.99;91.60
68859;BME280;55864;49.238;8.092;2024-01-16T08:44:36;98898.94;;;-1.77;90.77
68859;BME280;55864;49.238;8.092;2024-01-16T08:46:36;98906.56;;;-1.43;88.58
68859;BME280;55864;49.238;8.092;2024-01-16T08:48:37;98905.06;;;-1.47;88.45
68859;BME280;55864;49.238;8.092;2024-01-16T08:50:39;98902.59;;;-1.81;89.62
68859;BME280;55864;49.238;8.092;2024-01-16T08:52:39;98905.97;;;-1.96;90.18
68859;BME280;55864;49.238;8.092;2024-01-16T08:54:40;98914.44;;;-2.11;91.33
68859;BME280;55864;49.238;8.092;2024-01-16T08:56:40;98912.63;;;-2.09;92.00
68859;BME280;55864;49.238;8.092;2024-01-16T08:58:41;98914.63;;;-2.14;91.45
68859;BME280;55864;49.238;8.092;2024-01-16T09:00:41;98918.56;;;-2.24;91.32
68859;BME280;55864;49.238;8.092;2024-01-16T09:02:42;98919.13;;;-2.19;91.92
68859;BME280;55864;49.238;8.092;2024-01-16T09:04:43;98921.41;;;-2.13;92.23
68859;BME280;55864;49.238;8.092;2024-01-16T09:06:45;98920.28;;;-2.42;92.41
68859;BME280;55864;49.238;8.092;2024-01-16T09:08:45;98922.34;;;-2.31;92.15
68859;BME280;55864;49.238;8.092;2024-01-16T09:10:46;98922.03;;;-2.25;92.66
68859;BME280;55864;49.238;8.092;2024-01-16T09:12:47;98930.81;;;-2.12;91.77
68859;BME280;55864;49.238;8.092;2024-01-16T09:14:48;98931.31;;;-2.06;91.02
68859;BME280;55864;49.238;8.092;2024-01-16T09:16:48;98927.31;;;-2.28;91.87
68859;BME280;55864;49.238;8.092;2024-01-16T09:18:49;98931.03;;;-2.34;92.20
68859;BME280;55864;49.238;8.092;2024-01-16T09:20:49;98937.47;;;-2.42;93.13
68859;BME280;55864;49.238;8.092;2024-01-16T09:22:51;98935.63;;;-2.23;93.42
68859;BME280;55864;49.238;8.092;2024-01-16T09:24:52;98936.06;;;-1.98;91.60
68859;BME280;55864;49.238;8.092;2024-01-16T09:26:52;98937.38;;;-1.74;90.30
68859;BME280;55864;49.238;8.092;2024-01-16T09:28:53;98942.50;;;-1.89;89.95
68859;BME280;55864;49.238;8.092;2024-01-16T09:30:53;98947.16;;;-1.63;89.03
68859;BME280;55864;49.238;8.092;2024-01-16T09:32:54;98941.22;;;-1.17;88.05
68859;BME280;55864;49.238;8.092;2024-01-16T09:34:54;98946.09;;;-1.44;87.20
68859;BME280;55864;49.238;8.092;2024-01-16T09:36:55;98947.28;;;-1.66;87.77
68859;BME280;55864;49.238;8.092;2024-01-16T09:38:57;98946.22;;;-1.62;88.02
68859;BME280;55864;49.238;8.092;2024-01-16T09:40:57;98945.06;;;-1.72;89.41
68859;BME280;55864;49.238;8.092;2024-01-16T09:42:58;98940.91;;;-1.92;89.45
68859;BME280;55864;49.238;8.092;2024-01-16T09:45:00;98937.88;;;-1.83;89.40
68859;BME280;55864;49.238;8.092;2024-01-16T09:47:01;98939.97;;;-1.74;89.39
68859;BME280;55864;49.238;8.092;2024-01-16T09:49:02;98935.75;;;-1.75;89.79
68859;BME280;55864;49.238;8.092;2024-01-16T09:51:03;98931.63;;;-1.62;88.67
68859;BME280;55864;49.238;8.092;2024-01-16T09:53:04;98938.31;;;-1.42;88.51
68859;BME280;55864;49.238;8.092;2024-01-16T09:55:07;98931.91;;;-0.88;87.28
68859;BME280;55864;49.238;8.092;2024-01-16T09:57:07;98921.59;;;-0.73;85.76
68859;BME280;55864;49.238;8.092;2024-01-16T09:59:15;98918.25;;;-0.75;84.98
68859;BME280;55864;49.238;8.092;2024-01-16T10:01:17;98908.56;;;-1.17;85.88
68859;BME280;55864;49.238;8.092;2024-01-16T10:03:18;98902.50;;;-1.16;86.73
68859;BME280;55864;49.238;8.092;2024-01-16T10:05:19;98905.16;;;-1.02;86.24
68859;BME280;55864;49.238;8.092;2024-01-16T10:07:20;98903.84;;;-0.63;84.58
68859;BME280;55864;49.238;8.092;2024-01-16T10:09:20;98899.84;;;-0.24;82.87
68859;BME280;55864;49.238;8.092;2024-01-16T10:11:22;98890.50;;;-0.40;82.98
68859;BME280;55864;49.238;8.092;2024-01-16T10:13:23;98896.50;;;-0.26;82.36
68859;BME280;55864;49.238;8.092;2024-01-16T10:15:24;98907.97;;;-0.45;83.05
68859;BME280;55864;49.238;8.092;2024-01-16T10:17:35;98913.44;;;-0.81;84.07
68859;BME280;55864;49.238;8.092;2024-01-16T10:19:47;98910.72;;;-0.78;85.07
68859;BME280;55864;49.238;8.092;2024-01-16T10:21:48;98904.25;;;-1.16;85.93
68859;BME280;55864;49.238;8.092;2024-01-16T10:23:49;98902.56;;;-1.02;85.59
68859;BME280;55864;49.238;8.092;2024-01-16T10:26:04;98895.72;;;-0.71;85.33
68859;BME280;55864;49.238;8.092;2024-01-16T10:28:06;98904.97;;;-0.83;84.19
68859;BME280;55864;49.238;8.092;2024-01-16T10:30:07;98907.75;;;-0.56;84.16
68859;BME280;55864;49.238;8.092;2024-01-16T10:32:08;98898.53;;;-0.31;84.00
68859;BME280;55864;49.238;8.092;2024-01-16T10:34:19;98909.06;;;-0.06;82.92
68859;BME280;55864;49.238;8.092;2024-01-16T10:36:19;98899.56;;;-0.49;85.35
68859;BME280;55864;49.238;8.092;2024-01-16T10:38:20;98900.38;;;-0.33;84.35